Time;durP1;ratioP1;P1;durP2;ratioP2;P2;SDS_P1;SDS_P2;PMS_P1;PMS_P2;Temp;Humidity;BMP_temperature;BMP_pressure;BME280_temperature;BME280_humidity;BME280_pressure;Samples;Min_cycle;Max_cycle;Signal;HPM_P1;HPM_P2
2023/11/09 00:07:56;;;;;;;14.13;3.97;;;;;;;17.78;100.00;101305.69;21211853;27;20391;-74
2023/11/09 00:18:22;;;;;;;16.48;3.63;;;;;;;17.99;100.00;101307.31;21220239;27;20054;-74
2023/11/09 00:28:50;;;;;;;22.58;4.22;;;;;;;17.99;100.00;101307.31;21224002;27;20035;-73
2023/11/09 00:39:17;;;;;;;19.13;3.30;;;;;;;18.00;100.00;101300.19;21222804;27;20043;-74
2023/11/09 00:49:39;;;;;;;19.80;3.50;;;;;;;18.00;100.00;101308.22;21191962;27;20071;-74
2023/11/09 01:00:06;;;;;;;18.65;3.78;;;;;;;18.07;100.00;101259.19;21187343;27;20142;-74
2023/11/09 01:10:29;;;;;;;16.42;3.50;;;;;;;17.84;100.00;101262.91;21160338;27;20588;-74
2023/11/09 01:20:53;;;;;;;14.80;3.15;;;;;;;17.79;100.00;101272.72;21159985;27;20123;-75
2023/11/09 01:31:15;;;;;;;20.60;3.42;;;;;;;17.84;100.00;101292.28;21150299;27;20047;-74
2023/11/09 01:41:41;;;;;;;18.50;3.40;;;;;;;17.91;100.00;101278.00;21180355;27;20047;-74
2023/11/09 01:52:05;;;;;;;21.65;3.78;;;;;;;17.90;100.00;101281.56;21197286;27;20078;-74
2023/11/09 02:02:31;;;;;;;15.82;3.10;;;;;;;17.86;100.00;101294.94;21215873;27;20398;-75
2023/11/09 02:12:54;;;;;;;19.77;3.47;;;;;;;17.62;100.00;101306.66;21204631;28;20402;-74
2023/11/09 02:23:20;;;;;;;16.20;3.60;;;;;;;17.64;100.00;101320.00;21217227;28;20088;-74
2023/11/09 02:33:45;;;;;;;17.80;4.07;;;;;;;17.49;100.00;101320.91;21200346;28;20082;-75
2023/11/09 02:44:08;;;;;;;19.80;3.05;;;;;;;17.31;100.00;101304.97;21214745;28;20051;-74
2023/11/09 02:54:37;;;;;;;15.82;3.47;;;;;;;17.22;100.00;101316.53;21211245;27;20043;-74
2023/11/09 03:04:59;;;;;;;17.73;3.90;;;;;;;17.24;100.00;101329.88;21218665;27;20556;-75
2023/11/09 03:15:23;;;;;;;17.92;4.05;;;;;;;17.24;100.00;101343.22;21215785;27;20269;-74
2023/11/09 03:25:46;;;;;;;18.77;4.25;;;;;;;17.18;100.00;101348.59;21229918;27;20100;-74
2023/11/09 03:36:10;;;;;;;18.35;4.60;;;;;;;17.16;100.00;101350.34;21215725;27;20834;-74
2023/11/09 03:46:32;;;;;;;26.00;4.53;;;;;;;17.06;100.00;101341.50;21229779;27;20039;-73
2023/11/09 03:56:57;;;;;;;20.55;3.53;;;;;;;17.13;100.00;101354.78;21210395;27;20047;-75
2023/11/09 04:07:21;;;;;;;19.45;3.92;;;;;;;17.05;100.00;101366.38;21214220;27;20118;-73
2023/11/09 04:17:45;;;;;;;19.17;4.05;;;;;;;17.09;100.00;101369.03;21209405;27;20040;-74
2023/11/09 04:28:10;;;;;;;20.55;4.10;;;;;;;17.11;100.00;101369.94;21224162;27;20051;-74
2023/11/09 04:38:37;;;;;;;15.55;3.38;;;;;;;17.12;100.00;101368.16;21224222;27;20043;-74
2023/11/09 04:49:06;;;;;;;17.25;4.03;;;;;;;17.10;100.00;101367.25;21207073;27;20570;-73
2023/11/09 05:10:10;;;;;;;20.08;4.05;;;;;;;17.04;100.00;101392.19;21175937;27;19919;-74
2023/11/09 05:20:34;;;;;;;24.73;3.53;;;;;;;17.10;100.00;101391.28;21199331;27;20058;-73
2023/11/09 05:30:57;;;;;;;19.25;3.53;;;;;;;17.31;100.00;101396.59;21136975;27;20156;-75
2023/11/09 05:41:21;;;;;;;20.05;3.50;;;;;;;17.65;100.00;101410.78;21141812;27;20050;-74
2023/11/09 05:51:46;;;;;;;15.52;3.15;;;;;;;17.91;100.00;101418.72;21169402;27;20079;-74
2023/11/09 06:02:11;;;;;;;18.38;2.97;;;;;;;18.43;100.00;101435.38;21167274;27;20061;-73
2023/11/09 06:12:36;;;;;;;13.38;2.70;;;;;;;18.91;100.00;101452.00;21145116;28;20091;-74
2023/11/09 06:23:00;;;;;;;19.58;2.65;;;;;;;19.59;100.00;101454.13;21110349;27;20052;-75
2023/11/09 06:33:23;;;;;;;18.55;2.88;;;;;;;20.30;100.00;101453.25;21192165;27;20136;-74
2023/11/09 06:43:48;;;;;;;15.75;2.33;;;;;;;21.03;100.00;101460.25;21165618;27;20039;-74
2023/11/09 06:54:11;;;;;;;19.35;3.38;;;;;;;21.58;100.00;101453.09;21182228;27;20059;-75
2023/11/09 07:04:35;;;;;;;16.23;2.95;;;;;;;22.35;100.00;101437.19;21191546;27;20445;-74
2023/11/09 07:14:57;;;;;;;28.63;2.92;;;;;;;23.12;100.00;101438.06;21175665;27;20412;-75
2023/11/09 07:25:22;;;;;;;24.50;2.88;;;;;;;23.76;100.00;101439.94;21166878;27;20051;-75
2023/11/09 07:35:45;;;;;;;17.27;2.67;;;;;;;24.28;100.00;101441.19;21153468;27;20403;-74
2023/11/09 07:46:09;;;;;;;23.70;3.20;;;;;;;24.43;100.00;101429.91;21111170;27;20072;-74
2023/11/09 07:56:31;;;;;;;18.40;2.80;;;;;;;24.68;100.00;101426.47;21088395;28;20097;-74
2023/11/09 08:06:57;;;;;;;23.58;2.63;;;;;;;24.94;100.00;101427.38;21080140;27;20055;-75
2023/11/09 08:17:19;;;;;;;18.40;2.35;;;;;;;25.05;100.00;101429.75;21087377;27;20488;-74
2023/11/09 08:27:44;;;;;;;13.82;2.17;;;;;;;25.55;100.00;101436.09;21127746;27;20044;-74
2023/11/09 08:38:08;;;;;;;17.00;2.45;;;;;;;25.65;100.00;101432.19;21144887;27;20116;-74
2023/11/09 08:48:33;;;;;;;15.90;2.88;;;;;;;25.63;100.00;101446.69;21136593;27;20118;-74
2023/11/09 08:58:55;;;;;;;15.05;2.65;;;;;;;25.77;100.00;101450.66;21118763;28;20128;-74
2023/11/09 09:09:19;;;;;;;17.65;2.38;;;;;;;26.06;100.00;101446.84;21121209;28;20051;-76
2023/11/09 09:19:42;;;;;;;15.73;1.90;;;;;;;26.09;98.35;101435.94;21108201;28;20055;-75
2023/11/09 09:30:10;;;;;;;13.68;1.85;;;;;;;26.39;94.45;101422.16;21111402;28;20500;-75
2023/11/09 09:40:35;;;;;;;28.27;4.35;;;;;;;26.53;89.92;101411.69;21106669;28;20043;-75
2023/11/09 09:51:00;;;;;;;14.73;1.77;;;;;;;26.39;88.05;101416.75;21152359;27;20049;-75
2023/11/09 10:01:22;;;;;;;15.02;2.70;;;;;;;26.34;89.08;101410.66;21201450;27;20043;-75
2023/11/09 10:11:50;;;;;;;20.30;2.50;;;;;;;26.31;91.66;101405.38;21197830;27;20039;-75
2023/11/09 10:22:13;;;;;;;13.80;2.17;;;;;;;26.25;92.98;101395.66;21180801;28;20039;-76
2023/11/09 10:32:39;;;;;;;15.35;2.65;;;;;;;26.34;92.28;101380.84;21166989;28;20588;-75
2023/11/09 10:43:04;;;;;;;15.73;3.03;;;;;;;25.90;92.58;101378.03;21210213;28;20142;-75
2023/11/09 10:53:32;;;;;;;24.27;3.70;;;;;;;25.70;93.73;101375.19;21216187;28;20043;-75
2023/11/09 11:03:58;;;;;;;18.77;2.55;;;;;;;25.52;94.43;101352.38;21213206;28;20151;-75
2023/11/09 11:14:24;;;;;;;24.37;3.33;;;;;;;25.53;96.43;101347.88;21218337;27;20564;-74
2023/11/09 11:25:16;;;;;;;18.23;3.22;;;;;;;25.35;99.27;101344.88;21195635;27;20627;-74
2023/11/09 11:35:43;;;;;;;15.82;3.10;;;;;;;25.30;100.00;101345.97;21185462;27;20130;-74
2023/11/09 11:46:11;;;;;;;19.63;2.73;;;;;;;25.39;100.00;101338.44;21169180;27;20047;-75
2023/11/09 11:56:35;;;;;;;14.15;2.90;;;;;;;25.48;100.00;101336.31;21187328;27;20043;-73
2023/11/09 12:07:00;;;;;;;21.50;2.90;;;;;;;25.33;100.00;101335.97;21234846;27;20691;-74
2023/11/09 12:17:25;;;;;;;18.35;3.17;;;;;;;24.95;100.00;101329.19;21193155;27;20051;-75
2023/11/09 12:27:48;;;;;;;24.23;3.58;;;;;;;24.63;100.00;101327.56;21201690;27;20517;-75
2023/11/09 12:38:13;;;;;;;22.80;3.92;;;;;;;24.64;100.00;101336.53;21191841;27;20050;-75
2023/11/09 12:48:46;;;;;;;19.75;3.00;;;;;;;24.47;100.00;101333.53;21234466;27;20047;-75
2023/11/09 12:59:14;;;;;;;23.30;3.03;;;;;;;24.25;100.00;101344.13;21219085;27;20051;-74
2023/11/09 13:09:39;;;;;;;22.65;4.00;;;;;;;24.20;100.00;101338.00;21208143;27;20670;-76
2023/11/09 13:20:03;;;;;;;19.83;3.78;;;;;;;24.14;100.00;101351.63;21205732;27;20054;-75
2023/11/09 13:30:27;;;;;;;21.00;3.47;;;;;;;24.14;100.00;101352.53;21211457;27;20039;-75
2023/11/09 13:41:05;;;;;;;24.20;3.65;;;;;;;24.06;100.00;101354.56;21222238;27;20044;-75
2023/11/09 13:51:28;;;;;;;21.05;3.22;;;;;;;23.91;100.00;101356.84;21202838;27;20124;-75
2023/11/09 14:01:53;;;;;;;17.35;3.40;;;;;;;23.66;100.00;101360.25;21223896;27;20050;-76
2023/11/09 14:12:37;;;;;;;23.30;4.00;;;;;;;23.46;100.00;101357.22;21224288;28;20088;-74
2023/11/09 14:23:03;;;;;;;19.83;3.03;;;;;;;23.38;100.00;101357.41;21208776;28;20051;-75
2023/11/09 14:33:27;;;;;;;20.25;4.05;;;;;;;23.27;100.00;101364.91;21224141;28;20433;-75
2023/11/09 14:43:53;;;;;;;21.48;3.33;;;;;;;23.09;100.00;101370.81;21207976;27;20049;-74
2023/11/09 14:54:15;;;;;;;20.30;4.03;;;;;;;22.98;100.00;101379.16;21187489;27;20088;-76
2023/11/09 15:04:40;;;;;;;20.60;3.40;;;;;;;22.93;100.00;101377.50;21228106;27;20046;-74
2023/11/09 15:15:03;;;;;;;22.63;3.92;;;;;;;22.73;100.00;101388.78;21209774;27;20054;-74
2023/11/09 15:25:30;;;;;;;18.10;3.70;;;;;;;22.57;100.00;101390.94;21159316;27;20112;-74
2023/11/09 15:35:53;;;;;;;20.98;4.43;;;;;;;22.40;100.00;101411.06;21215706;27;20490;-74
2023/11/09 15:46:17;;;;;;;19.67;4.55;;;;;;;22.21;100.00;101414.16;21220136;27;20544;-74
2023/11/09 15:56:40;;;;;;;23.00;5.53;;;;;;;21.97;100.00;101427.25;21206544;27;20050;-73
2023/11/09 16:07:05;;;;;;;23.88;4.20;;;;;;;21.89;100.00;101424.69;21196418;27;20051;-74
2023/11/09 16:17:28;;;;;;;26.30;6.38;;;;;;;21.74;100.00;101423.19;21202610;27;20784;-74
2023/11/09 16:27:53;;;;;;;29.70;5.03;;;;;;;21.68;100.00;101431.38;21188551;27;20047;-73
2023/11/09 16:38:17;;;;;;;18.40;4.40;;;;;;;21.59;100.00;101447.69;21184235;27;20394;-73
2023/11/09 16:48:41;;;;;;;18.15;4.25;;;;;;;21.64;100.00;101452.97;21210337;27;20047;-75
2023/11/09 16:59:03;;;;;;;19.27;4.55;;;;;;;21.36;100.00;101437.34;21190551;27;20054;-74
2023/11/09 17:09:28;;;;;;;19.42;4.65;;;;;;;21.24;100.00;101450.13;21185266;27;20046;-74
2023/11/09 17:19:51;;;;;;;19.13;4.68;;;;;;;21.11;100.00;101449.41;21253924;27;20070;-73
2023/11/09 17:30:16;;;;;;;20.75;3.97;;;;;;;20.99;100.00;101458.56;21250676;27;20432;-75
2023/11/09 17:40:39;;;;;;;19.45;4.15;;;;;;;20.99;100.00;101468.41;21218750;27;20054;-73
2023/11/09 17:51:05;;;;;;;25.70;4.82;;;;;;;20.91;100.00;101465.84;21227119;27;20063;-75
2023/11/09 18:01:29;;;;;;;18.80;4.10;;;;;;;20.78;100.00;101466.03;21194212;27;20051;-74
2023/11/09 18:11:55;;;;;;;22.50;4.20;;;;;;;20.71;100.00;101467.03;21186833;27;20045;-75
2023/11/09 18:22:18;;;;;;;19.80;4.30;;;;;;;20.65;100.00;101468.03;21245188;27;20051;-75
2023/11/09 18:32:42;;;;;;;22.90;5.38;;;;;;;20.54;100.00;101468.19;21222956;27;20092;-73
2023/11/09 18:43:06;;;;;;;20.38;4.32;;;;;;;20.49;100.00;101488.81;21207606;27;20083;-74
2023/11/09 18:53:33;;;;;;;16.85;3.85;;;;;;;20.46;100.00;101509.44;21219961;27;20449;-74
2023/11/09 19:03:55;;;;;;;21.23;4.57;;;;;;;20.40;100.00;101514.88;21204938;27;20641;-74
2023/11/09 19:14:19;;;;;;;17.63;4.70;;;;;;;20.40;100.00;101505.03;21224597;27;20567;-74
2023/11/09 19:24:42;;;;;;;18.02;4.05;;;;;;;20.37;100.00;101518.47;21198579;27;20039;-74
2023/11/09 19:35:07;;;;;;;23.10;9.70;;;;;;;20.19;100.00;101521.34;21230041;27;20058;-75
2023/11/09 19:45:29;;;;;;;30.75;15.30;;;;;;;20.05;100.00;101504.53;21206239;27;20039;-75
2023/11/09 19:55:53;;;;;;;23.65;7.53;;;;;;;20.01;100.00;101514.41;21216070;27;20521;-75
2023/11/09 20:06:15;;;;;;;24.45;4.88;;;;;;;19.95;100.00;101510.91;21206892;27;20051;-75
2023/11/09 20:16:39;;;;;;;20.60;5.10;;;;;;;19.96;100.00;101523.38;21207163;27;20124;-74
2023/11/09 20:27:03;;;;;;;18.50;4.97;;;;;;;19.87;100.00;101514.56;21198142;27;20066;-75
2023/11/09 20:37:27;;;;;;;23.95;6.18;;;;;;;19.84;100.00;101511.00;21215556;27;20046;-75
2023/11/09 20:47:50;;;;;;;19.77;6.22;;;;;;;19.73;100.00;101516.50;21219810;27;20137;-75
2023/11/09 20:58:15;;;;;;;17.58;5.53;;;;;;;19.68;100.00;101499.56;21207239;27;20107;-73
2023/11/09 21:08:37;;;;;;;18.80;5.05;;;;;;;19.57;100.00;101495.19;21204780;27;20095;-75
2023/11/09 21:19:03;;;;;;;22.17;5.90;;;;;;;19.49;100.00;101495.31;21196986;27;20086;-74
2023/11/09 21:29:26;;;;;;;24.17;5.78;;;;;;;19.42;100.00;101501.59;21174506;27;20042;-74
2023/11/09 21:39:50;;;;;;;15.52;5.15;;;;;;;19.38;100.00;101492.66;21214903;27;20043;-75
2023/11/09 21:50:13;;;;;;;19.55;5.13;;;;;;;19.37;100.00;101490.00;21186123;27;20051;-74
2023/11/09 22:00:36;;;;;;;21.63;6.25;;;;;;;19.31;100.00;101492.72;21203846;27;20051;-76
2023/11/09 22:10:59;;;;;;;22.30;5.50;;;;;;;19.33;100.00;101498.97;21202186;28;20730;-74
2023/11/09 22:21:24;;;;;;;27.27;5.05;;;;;;;19.29;100.00;101498.13;21201519;28;20051;-74
2023/11/09 22:31:47;;;;;;;15.40;4.45;;;;;;;19.21;100.00;101488.38;21216324;28;20050;-74
2023/11/09 22:42:12;;;;;;;24.92;5.80;;;;;;;18.94;100.00;101489.47;21184949;27;20142;-74
2023/11/09 22:52:37;;;;;;;19.25;5.45;;;;;;;19.00;100.00;101489.41;21200852;28;20525;-74
2023/11/09 23:03:02;;;;;;;22.42;4.47;;;;;;;19.07;100.00;101484.00;21215847;27;20055;-74
2023/11/09 23:13:25;;;;;;;17.55;4.85;;;;;;;19.06;100.00;101479.56;21229477;27;20134;-73
2023/11/09 23:23:49;;;;;;;23.30;5.18;;;;;;;18.77;100.00;101486.91;21213703;27;20051;-74
2023/11/09 23:34:12;;;;;;;24.92;4.80;;;;;;;18.93;100.00;101495.72;21229358;27;20471;-74
2023/11/09 23:44:36;;;;;;;12.65;4.10;;;;;;;18.91;100.00;101492.16;21210975;27;20138;-74
2023/11/09 23:54:59;;;;;;;22.60;4.63;;;;;;;18.95;100.00;101497.50;21222986;27;20391;-74
